logo
Rechercher aéroport 
image banner adimage banner adimage banner ad
image banner ad

CL02 - Kilroy Airport Center

Situé à El Segundo, United States

ICAO - CL02, IATA -

Données fournies par Airmate  

Information générale

Coordonnées: N33°55'48" W118°23'6"
Élévation : 255 feet MSL.
Variation magnétique : 14° East
Voir autres Aéroports à California

Données opérationnelles

Special qualification required
Heure actuelle UTC:
Heure actuelle locale:
Météo à : KLAX - Los Angeles Intl ( 3 km )
METAR: KLAX 281153Z COR 26004KT 10SM FEW002 21/19 A2988 RMK AO2 SLP117 T02110194 10228 20206 55002
TAF: KLAX 281148Z 2812/2918 VRB03KT P6SM SKC FM281300 VRB03KT 5SM BR SCT004 FM281600 26006KT P6SM SKC FM282000 26012KT P6SM SKC FM290400 25006KT 6SM BR SCT005 FM290800 VRB03KT 2SM BR VCFG BKN004 FM291600 VRB03KT P6SM SCT008
Voir NOTAMs / SUP AIP / TFR affectant cet aéroport [VIEW]
Fréquences de communication: [VIEW]

Pistes:

Coordonnées de l'aéroport

Adresse: El Segundo United States

Vue satellite de CL02